Time;durP1;ratioP1;P1;durP2;ratioP2;P2;SDS_P1;SDS_P2;PMS_P1;PMS_P2;Temp;Humidity;BMP_temperature;BMP_pressure;BME280_temperature;BME280_humidity;BME280_pressure;Samples;Min_cycle;Max_cycle;Signal;HPM_P1;HPM_P2
2024/02/06 00:00:10;;;;;;;7.47;3.15;;;;;;;10.96;84.16;100203.78;5071771;28;20095;-46
2024/02/06 00:02:39;;;;;;;8.73;2.60;;;;;;;10.90;83.13;100207.69;5072995;28;20052;-46
2024/02/06 00:05:08;;;;;;;8.75;2.80;;;;;;;10.86;83.68;100209.69;5072821;28;20048;-47
2024/02/06 00:07:41;;;;;;;8.98;2.80;;;;;;;10.87;82.51;100205.22;5072861;28;20072;-45
2024/02/06 00:10:10;;;;;;;7.43;2.83;;;;;;;10.86;83.55;100193.69;5073010;28;20087;-46
2024/02/06 00:12:39;;;;;;;9.52;2.72;;;;;;;10.87;82.51;100207.88;5071572;28;20047;-46
2024/02/06 00:15:08;;;;;;;7.93;2.45;;;;;;;10.85;83.17;100205.31;5072655;28;20060;-45
2024/02/06 00:17:36;;;;;;;11.15;2.75;;;;;;;10.85;81.81;100205.31;5072454;28;20115;-47
2024/02/06 00:20:07;;;;;;;7.60;2.65;;;;;;;10.82;82.44;100208.19;5072795;28;20048;-47
2024/02/06 00:22:35;;;;;;;8.15;2.65;;;;;;;10.80;82.58;100209.19;5072824;28;20048;-44
2024/02/06 00:25:07;;;;;;;12.13;3.42;;;;;;;10.83;82.25;100212.56;5072431;28;20135;-45
2024/02/06 00:27:36;;;;;;;9.20;3.15;;;;;;;10.84;81.63;100210.75;5072476;28;20051;-48
2024/02/06 00:30:06;;;;;;;9.90;2.63;;;;;;;10.84;81.56;100213.41;5072359;28;20539;-46
2024/02/06 00:32:35;;;;;;;9.57;2.90;;;;;;;10.87;80.68;100210.53;5072545;28;20119;-48
2024/02/06 00:35:04;;;;;;;7.25;2.55;;;;;;;10.84;80.82;100208.06;5072260;28;20490;-47
2024/02/06 00:37:33;;;;;;;7.50;2.88;;;;;;;10.81;80.46;100206.47;5072264;28;20497;-48
2024/02/06 00:40:01;;;;;;;7.03;2.78;;;;;;;10.85;80.74;100201.78;5072329;28;20055;-48
2024/02/06 00:42:31;;;;;;;7.38;2.78;;;;;;;10.88;80.34;100202.44;5070821;28;20076;-49
2024/02/06 00:45:02;;;;;;;10.25;2.97;;;;;;;10.85;80.67;100197.31;5070674;28;20048;-46
2024/02/06 00:47:32;;;;;;;9.73;2.97;;;;;;;10.83;80.04;100199.22;5072175;28;20044;-46
2024/02/06 00:50:00;;;;;;;9.43;2.72;;;;;;;10.83;79.04;100198.34;5071296;28;20044;-50
2024/02/06 00:52:29;;;;;;;9.10;2.85;;;;;;;10.81;78.68;100193.13;5072276;28;20079;-47
2024/02/06 00:54:57;;;;;;;8.38;2.72;;;;;;;10.83;79.10;100193.88;5072167;28;20059;-47
2024/02/06 00:57:26;;;;;;;9.07;3.20;;;;;;;10.86;76.56;100187.50;5072140;28;20131;-45
2024/02/06 00:59:55;;;;;;;8.70;3.38;;;;;;;10.82;76.39;100189.50;5071819;28;20171;-47
2024/02/06 01:02:39;;;;;;;6.95;3.17;;;;;;;10.82;75.99;100189.50;5071935;28;20049;-48
2024/02/06 01:05:11;;;;;;;7.70;2.83;;;;;;;10.85;77.40;100191.09;5071668;28;20127;-46
2024/02/06 01:07:39;;;;;;;6.20;2.88;;;;;;;10.82;74.88;100192.16;5071602;28;20049;-48
2024/02/06 01:10:16;;;;;;;10.52;3.28;;;;;;;10.84;74.96;100184.91;5072271;28;20292;-47
2024/02/06 01:12:44;;;;;;;9.43;3.08;;;;;;;10.86;75.86;100192.81;5072250;28;20049;-46
2024/02/06 01:15:16;;;;;;;5.30;2.92;;;;;;;10.85;72.30;100197.31;5072396;28;20466;-45
2024/02/06 01:17:50;;;;;;;6.82;2.72;;;;;;;10.88;73.81;100188.25;5072267;28;20056;-48
2024/02/06 01:20:18;;;;;;;5.75;2.80;;;;;;;10.91;72.52;100187.22;5071729;28;20055;-46
2024/02/06 01:22:46;;;;;;;9.38;3.05;;;;;;;10.89;71.95;100182.81;5071917;28;20048;-46
2024/02/06 01:25:15;;;;;;;10.48;3.05;;;;;;;10.91;71.02;100184.53;5071615;28;20463;-47
2024/02/06 01:27:46;;;;;;;9.23;3.05;;;;;;;10.88;70.26;100181.09;5071475;28;20144;-46
2024/02/06 01:30:19;;;;;;;6.95;3.13;;;;;;;10.88;70.04;100173.09;5071400;28;20131;-48
2024/02/06 01:32:50;;;;;;;6.72;2.50;;;;;;;10.88;69.45;100174.91;5071272;28;20083;-48
2024/02/06 01:35:22;;;;;;;10.82;2.97;;;;;;;10.91;70.23;100173.88;5071668;28;20041;-52
2024/02/06 01:37:50;;;;;;;7.10;2.88;;;;;;;10.88;69.14;100165.06;5071591;28;20049;-46
2024/02/06 01:40:21;;;;;;;7.15;2.97;;;;;;;10.90;70.42;100162.31;5071438;28;20045;-49
2024/02/06 01:42:49;;;;;;;8.93;2.85;;;;;;;10.89;68.50;100166.78;5071708;28;20064;-45
2024/02/06 01:45:19;;;;;;;10.68;2.92;;;;;;;10.89;71.08;100161.44;5071005;28;20539;-49
2024/02/06 01:47:48;;;;;;;8.55;2.80;;;;;;;10.88;69.73;100165.06;5071430;28;20127;-48
2024/02/06 01:50:20;;;;;;;9.45;3.00;;;;;;;10.87;69.74;100158.03;5071036;28;20494;-48
2024/02/06 01:52:48;;;;;;;9.52;2.95;;;;;;;10.87;69.30;100155.38;5071357;28;20049;-49
2024/02/06 01:55:17;;;;;;;6.72;2.65;;;;;;;10.83;68.82;100163.66;5070948;28;20106;-48
2024/02/06 01:57:47;;;;;;;8.38;3.03;;;;;;;10.83;68.40;100161.00;5071040;28;20078;-47
2024/02/06 02:00:15;;;;;;;8.98;2.95;;;;;;;10.80;67.70;100150.50;5070785;28;20052;-48
2024/02/06 02:02:45;;;;;;;6.72;3.10;;;;;;;10.79;69.29;100148.78;5071133;28;20048;-46
2024/02/06 02:05:17;;;;;;;9.03;2.93;;;;;;;10.71;68.54;100153.75;5070961;28;20041;-48
2024/02/06 02:07:48;;;;;;;7.68;3.20;;;;;;;10.63;68.13;100151.56;5070890;28;20090;-49
2024/02/06 02:10:16;;;;;;;8.68;3.40;;;;;;;10.64;68.61;100139.94;5070889;28;20076;-47
2024/02/06 02:12:45;;;;;;;7.25;2.95;;;;;;;10.60;67.27;100143.75;5071081;28;20059;-49
2024/02/06 02:15:14;;;;;;;7.30;3.20;;;;;;;10.62;66.66;100149.00;5070883;28;20068;-45
2024/02/06 02:17:42;;;;;;;8.02;3.17;;;;;;;10.58;66.88;100140.31;5070801;28;20548;-48
2024/02/06 02:20:15;;;;;;;6.60;2.90;;;;;;;10.63;66.28;100132.91;5070779;28;20044;-49
2024/02/06 02:22:45;;;;;;;9.27;3.15;;;;;;;10.62;65.58;100138.34;5070934;28;20083;-47
2024/02/06 02:25:13;;;;;;;11.50;3.47;;;;;;;10.65;65.24;100131.00;5070672;28;20110;-47
2024/02/06 02:27:43;;;;;;;10.77;3.22;;;;;;;10.62;64.61;100120.53;5070751;28;20052;-48
2024/02/06 02:30:13;;;;;;;11.30;3.58;;;;;;;10.71;64.38;100125.28;5070701;28;20055;-47
2024/02/06 02:32:45;;;;;;;11.25;3.28;;;;;;;10.74;64.19;100125.09;5070819;28;20577;-46
2024/02/06 02:35:17;;;;;;;7.63;3.15;;;;;;;10.73;64.13;100123.38;5070798;28;20052;-48
2024/02/06 02:37:47;;;;;;;7.38;3.72;;;;;;;10.75;64.44;100137.47;5070521;28;20147;-47
2024/02/06 02:40:16;;;;;;;8.07;3.42;;;;;;;10.72;64.76;100124.31;5070159;28;20151;-47
2024/02/06 02:42:44;;;;;;;9.55;3.47;;;;;;;10.70;65.94;100125.34;5070706;28;20139;-49
2024/02/06 02:45:13;;;;;;;10.73;3.50;;;;;;;10.54;67.63;100118.31;5070604;28;20186;-47
2024/02/06 02:47:43;;;;;;;6.78;3.42;;;;;;;10.43;66.88;100119.94;5070387;28;20053;-46
2024/02/06 02:50:12;;;;;;;9.15;3.53;;;;;;;10.44;67.18;100116.31;5070433;28;20052;-48
2024/02/06 02:52:40;;;;;;;9.90;4.15;;;;;;;10.43;67.92;100127.94;5069430;28;20045;-47
2024/02/06 02:55:10;;;;;;;9.48;4.18;;;;;;;10.37;68.69;100128.31;5070619;28;20048;-46
2024/02/06 02:57:42;;;;;;;8.85;4.55;;;;;;;10.31;69.25;100122.38;5070368;28;20048;-47
2024/02/06 03:00:11;;;;;;;9.93;4.70;;;;;;;10.11;70.40;100125.38;5070370;28;20097;-47
2024/02/06 03:02:39;;;;;;;9.05;4.72;;;;;;;10.12;70.68;100131.56;5070317;28;20049;-47
2024/02/06 03:05:09;;;;;;;10.85;5.18;;;;;;;9.99;71.10;100128.78;5070137;28;20132;-47
2024/02/06 03:07:38;;;;;;;12.40;4.82;;;;;;;10.01;72.18;100118.88;5071789;28;20056;-46
2024/02/06 03:10:11;;;;;;;10.65;4.38;;;;;;;10.07;71.27;100118.53;5074172;28;20147;-45
2024/02/06 03:12:41;;;;;;;10.30;4.70;;;;;;;10.09;70.80;100118.44;5074042;28;20055;-45
2024/02/06 03:15:10;;;;;;;9.95;4.65;;;;;;;10.03;69.99;100111.66;5072412;28;20110;-46
2024/02/06 03:17:38;;;;;;;8.65;4.15;;;;;;;10.05;69.79;100115.09;5074082;28;20052;-46
2024/02/06 03:20:09;;;;;;;10.38;5.25;;;;;;;10.07;68.91;100115.88;5073877;28;20079;-44
2024/02/06 03:22:38;;;;;;;14.52;4.78;;;;;;;10.02;69.66;100117.94;5073803;28;20040;-46
2024/02/06 03:25:10;;;;;;;9.68;4.65;;;;;;;9.93;69.39;100116.66;5073627;28;20041;-45
2024/02/06 03:27:46;;;;;;;9.25;4.60;;;;;;;9.89;70.34;100117.81;5072161;28;20059;-45
2024/02/06 03:30:15;;;;;;;9.68;4.60;;;;;;;9.82;70.63;100119.13;5073619;28;20056;-46
2024/02/06 03:32:46;;;;;;;14.15;5.10;;;;;;;9.77;71.03;100118.56;5073506;28;20044;-46
2024/02/06 03:35:18;;;;;;;12.68;5.35;;;;;;;9.71;68.66;100119.75;5073416;28;20436;-49
2024/02/06 03:37:47;;;;;;;8.50;4.70;;;;;;;9.67;68.48;100125.38;5073458;28;20044;-47
2024/02/06 03:40:17;;;;;;;11.20;4.88;;;;;;;9.67;69.47;100120.91;5073241;28;20044;-47
2024/02/06 03:42:45;;;;;;;13.27;5.40;;;;;;;9.68;69.36;100114.63;5073538;28;20527;-48
2024/02/06 03:45:14;;;;;;;12.38;5.25;;;;;;;9.64;68.34;100120.19;5073448;28;20045;-45
2024/02/06 03:47:42;;;;;;;8.50;4.22;;;;;;;9.64;67.54;100115.72;5073066;28;20461;-48
2024/02/06 03:50:11;;;;;;;8.30;4.55;;;;;;;9.66;67.20;100113.84;5073122;28;20044;-46
2024/02/06 03:52:39;;;;;;;10.02;4.38;;;;;;;9.69;66.43;100118.13;5072757;28;20110;-47
2024/02/06 03:55:08;;;;;;;7.43;3.60;;;;;;;9.75;64.67;100117.78;5072887;28;20110;-46
2024/02/06 03:57:37;;;;;;;8.05;3.17;;;;;;;9.80;65.27;100109.50;5073204;28;20048;-48
2024/02/06 04:00:08;;;;;;;8.05;3.67;;;;;;;9.87;65.58;100116.19;5073015;28;20048;-46
2024/02/06 04:02:39;;;;;;;7.88;3.30;;;;;;;9.90;63.83;100108.00;5072977;28;20474;-47
2024/02/06 04:05:08;;;;;;;8.82;3.13;;;;;;;9.96;61.30;100113.00;5073024;28;20586;-47
2024/02/06 04:07:39;;;;;;;8.02;3.20;;;;;;;10.06;61.59;100106.16;5072832;28;20053;-48
2024/02/06 04:10:11;;;;;;;6.57;3.22;;;;;;;10.13;58.21;100102.16;5073044;28;20045;-50
2024/02/06 04:12:48;;;;;;;6.25;2.75;;;;;;;10.19;59.91;100101.78;5071766;28;20146;-48
2024/02/06 04:15:16;;;;;;;7.93;3.03;;;;;;;10.20;55.97;100102.66;5072723;28;20106;-48
2024/02/06 04:17:45;;;;;;;9.98;3.25;;;;;;;10.23;56.90;100103.38;5072570;28;20390;-48
2024/02/06 04:20:13;;;;;;;7.18;2.70;;;;;;;10.26;59.19;100095.16;5072494;28;20120;-48
2024/02/06 04:22:42;;;;;;;9.30;2.85;;;;;;;10.31;57.57;100101.06;5072777;28;20425;-48
2024/02/06 04:25:10;;;;;;;9.38;3.00;;;;;;;10.32;56.64;100092.09;5072576;28;20056;-48
2024/02/06 04:27:39;;;;;;;11.52;2.80;;;;;;;10.38;57.47;100100.69;5072542;28;20481;-50
2024/02/06 04:30:13;;;;;;;8.93;3.15;;;;;;;10.37;56.04;100094.50;5072340;28;20048;-49
2024/02/06 04:32:42;;;;;;;8.10;3.22;;;;;;;10.28;57.02;100093.25;5072213;28;20217;-46
2024/02/06 04:35:10;;;;;;;9.40;3.42;;;;;;;10.28;56.85;100095.94;5072467;28;20051;-46
2024/02/06 04:37:39;;;;;;;8.32;3.60;;;;;;;10.18;57.70;100094.75;5072498;28;20508;-46
2024/02/06 04:40:09;;;;;;;10.13;3.67;;;;;;;10.04;57.76;100092.06;5072370;28;20048;-48
2024/02/06 04:42:39;;;;;;;12.25;5.80;;;;;;;9.62;63.19;100096.31;5070840;28;20041;-47
2024/02/06 04:45:08;;;;;;;16.60;8.60;;;;;;;9.44;66.75;100100.06;5071935;28;20106;-47
2024/02/06 04:47:38;;;;;;;19.77;9.73;;;;;;;9.16;69.90;100096.31;5071979;28;20102;-48
2024/02/06 04:50:07;;;;;;;22.85;10.02;;;;;;;8.96;71.59;100104.56;5071820;28;20044;-49
2024/02/06 04:52:36;;;;;;;18.05;10.95;;;;;;;8.73;73.46;100103.19;5070712;28;20087;-46
2024/02/06 04:55:09;;;;;;;22.33;13.00;;;;;;;8.29;76.59;100106.38;5071900;28;20556;-48
2024/02/06 04:57:38;;;;;;;27.73;14.13;;;;;;;7.99;79.64;100098.22;5071599;28;20071;-47
2024/02/06 05:00:12;;;;;;;27.65;15.15;;;;;;;7.86;82.15;100091.00;5071383;28;20095;-47
2024/02/06 05:02:42;;;;;;;29.55;15.15;;;;;;;7.91;81.39;100089.84;5070627;28;20048;-47
2024/02/06 05:05:11;;;;;;;25.35;14.82;;;;;;;8.01;81.45;100092.88;5071839;28;20040;-46
2024/02/06 05:07:43;;;;;;;27.50;15.73;;;;;;;7.90;81.82;100092.53;5071275;28;20125;-48
2024/02/06 05:10:12;;;;;;;25.55;14.75;;;;;;;7.98;81.22;100085.03;5071610;28;20057;-49
2024/02/06 05:12:41;;;;;;;28.13;14.77;;;;;;;7.97;81.81;100088.63;5071803;28;20060;-46
2024/02/06 05:15:10;;;;;;;26.60;15.43;;;;;;;7.97;81.60;100076.22;5071835;28;20418;-46
2024/02/06 05:17:40;;;;;;;25.73;14.80;;;;;;;7.98;81.57;100064.66;5071539;28;20076;-48
2024/02/06 05:20:14;;;;;;;28.50;16.10;;;;;;;7.83;77.63;100077.88;5071385;28;20482;-47
2024/02/06 05:22:46;;;;;;;23.52;14.68;;;;;;;7.68;78.95;100083.03;5071277;28;20048;-47
2024/02/06 05:25:14;;;;;;;26.08;15.07;;;;;;;7.63;79.08;100076.25;5071583;28;20045;-47
2024/02/06 05:27:43;;;;;;;27.15;14.50;;;;;;;7.49;79.25;100087.53;5071200;28;20128;-47
2024/02/06 05:30:14;;;;;;;26.30;13.85;;;;;;;7.54;79.34;100085.53;5071037;28;20047;-48
2024/02/06 05:32:44;;;;;;;27.05;14.20;;;;;;;7.57;78.40;100081.84;5071312;28;20474;-46
2024/02/06 05:35:14;;;;;;;26.33;13.52;;;;;;;7.57;78.35;100073.91;5071155;28;20075;-47
2024/02/06 05:37:42;;;;;;;27.88;14.07;;;;;;;7.60;77.22;100068.41;5071485;28;20048;-49
2024/02/06 05:40:12;;;;;;;22.70;12.95;;;;;;;7.38;77.35;100080.13;5071168;28;20045;-46
2024/02/06 05:42:41;;;;;;;21.52;12.10;;;;;;;7.43;77.49;100078.13;5071358;28;20055;-46
2024/02/06 05:45:10;;;;;;;23.27;11.90;;;;;;;7.51;76.31;100071.53;5071283;28;20074;-46
2024/02/06 05:47:40;;;;;;;24.90;12.60;;;;;;;7.60;75.42;100068.41;5069836;28;20192;-49
2024/02/06 05:50:10;;;;;;;20.38;11.48;;;;;;;7.63;74.60;100057.66;5071422;28;20044;-46
2024/02/06 05:52:45;;;;;;;25.90;12.02;;;;;;;7.65;74.08;100061.09;5071184;28;20049;-46
2024/02/06 05:55:15;;;;;;;19.77;11.10;;;;;;;7.67;74.13;100056.56;5071312;28;20045;-49
2024/02/06 05:57:43;;;;;;;20.25;10.40;;;;;;;7.73;73.19;100056.25;5070350;28;20094;-46
2024/02/06 06:00:13;;;;;;;23.23;11.65;;;;;;;7.71;73.14;100050.16;5070724;28;20048;-48
2024/02/06 06:02:41;;;;;;;19.65;10.40;;;;;;;7.81;72.24;100047.88;5070726;28;20052;-47
2024/02/06 06:05:10;;;;;;;19.63;9.98;;;;;;;7.75;71.41;100052.56;5071086;28;20044;-49
2024/02/06 06:07:39;;;;;;;23.10;10.23;;;;;;;7.83;70.90;100053.97;5070937;28;20076;-49
2024/02/06 06:10:09;;;;;;;20.00;9.20;;;;;;;7.90;70.50;100056.22;5070950;28;20417;-47
2024/02/06 06:12:38;;;;;;;16.95;9.98;;;;;;;7.89;69.49;100058.97;5070897;28;20040;-48
2024/02/06 06:15:07;;;;;;;16.58;9.40;;;;;;;7.86;69.31;100067.94;5070788;28;20132;-48
2024/02/06 06:17:38;;;;;;;19.05;9.15;;;;;;;7.92;69.20;100043.75;5071018;28;20045;-49
2024/02/06 06:20:08;;;;;;;20.92;10.93;;;;;;;7.74;70.03;100052.66;5070639;28;20052;-46
2024/02/06 06:22:39;;;;;;;19.35;10.55;;;;;;;7.79;71.01;100047.09;5069532;28;20542;-47
2024/02/06 06:25:09;;;;;;;19.48;10.63;;;;;;;7.80;71.22;100060.28;5070665;28;20503;-47
2024/02/06 06:27:41;;;;;;;23.02;10.98;;;;;;;7.57;72.81;100064.13;5070684;28;20044;-48
2024/02/06 06:30:13;;;;;;;22.30;10.75;;;;;;;7.67;73.00;100059.22;5070924;28;20059;-48
2024/02/06 06:32:41;;;;;;;21.13;11.88;;;;;;;7.68;74.23;100063.59;5070874;28;20052;-47
2024/02/06 06:35:11;;;;;;;22.98;11.05;;;;;;;7.72;73.93;100058.06;5070793;28;20047;-46
2024/02/06 06:37:42;;;;;;;21.17;11.68;;;;;;;7.67;74.75;100059.22;5070790;28;20394;-49
2024/02/06 06:40:12;;;;;;;21.95;11.25;;;;;;;7.78;74.77;100072.78;5070475;28;20490;-48
2024/02/06 06:42:44;;;;;;;21.60;11.07;;;;;;;7.92;74.69;100059.69;5072472;28;20052;-49
2024/02/06 06:45:12;;;;;;;24.20;12.07;;;;;;;7.98;78.38;100059.34;5074855;28;20045;-48
2024/02/06 06:47:41;;;;;;;21.55;11.93;;;;;;;8.19;77.42;100061.78;5074606;28;20136;-47
2024/02/06 06:50:10;;;;;;;24.25;13.23;;;;;;;8.27;75.27;100062.25;5074632;28;20056;-46
2024/02/06 06:52:42;;;;;;;21.25;12.48;;;;;;;8.23;75.44;100071.34;5074292;28;20056;-48
2024/02/06 06:55:12;;;;;;;24.35;12.95;;;;;;;8.26;76.42;100064.03;5075036;28;20124;-45
2024/02/06 06:57:42;;;;;;;25.17;13.07;;;;;;;8.13;77.99;100056.81;5074643;28;20547;-49
2024/02/06 07:00:17;;;;;;;26.27;13.88;;;;;;;8.07;79.01;100052.69;5074255;28;20113;-48
2024/02/06 07:02:47;;;;;;;23.35;13.70;;;;;;;8.06;80.82;100052.78;5074202;28;20212;-49
2024/02/06 07:05:22;;;;;;;25.52;13.80;;;;;;;8.24;80.63;100051.78;5074009;28;20486;-48
2024/02/06 07:07:51;;;;;;;29.70;13.70;;;;;;;8.31;80.75;100050.53;5073693;28;20051;-46
2024/02/06 07:10:21;;;;;;;24.48;13.68;;;;;;;8.43;79.85;100049.88;5072584;28;20826;-48
2024/02/06 07:12:49;;;;;;;22.63;14.25;;;;;;;8.53;79.24;100045.78;5074018;28;20045;-48
2024/02/06 07:15:18;;;;;;;24.05;14.18;;;;;;;8.58;79.84;100041.06;5073840;28;20049;-48
2024/02/06 07:17:49;;;;;;;26.20;14.82;;;;;;;8.62;79.96;100043.56;5073571;28;20460;-49
2024/02/06 07:20:17;;;;;;;28.08;14.73;;;;;;;8.73;78.81;100049.13;5073922;28;20049;-47
2024/02/06 07:22:46;;;;;;;25.77;14.52;;;;;;;8.84;78.62;100049.41;5073684;28;20493;-49
2024/02/06 07:25:14;;;;;;;23.42;14.57;;;;;;;8.88;78.40;100053.63;5073685;28;20477;-49
2024/02/06 07:27:44;;;;;;;23.73;15.10;;;;;;;8.98;78.48;100046.81;5073607;28;20485;-50
2024/02/06 07:30:13;;;;;;;23.67;14.43;;;;;;;9.02;78.12;100051.00;5073386;28;20523;-49
2024/02/06 07:32:57;;;;;;;26.85;15.85;;;;;;;9.07;78.39;100051.63;5073728;28;20048;-48
2024/02/06 07:35:26;;;;;;;27.50;15.20;;;;;;;9.12;77.98;100054.88;5073560;28;20048;-48
2024/02/06 07:37:54;;;;;;;33.55;14.50;;;;;;;9.17;77.25;100050.16;5073791;28;20056;-50
2024/02/06 07:40:22;;;;;;;26.25;14.23;;;;;;;9.24;77.17;100047.13;5073675;28;20437;-48
2024/02/06 07:42:52;;;;;;;25.40;14.85;;;;;;;9.38;76.94;100049.84;5073687;28;20091;-45
2024/02/06 07:45:22;;;;;;;25.10;14.95;;;;;;;9.40;77.01;100047.94;5073301;28;20462;-49
2024/02/06 07:47:50;;;;;;;25.70;14.32;;;;;;;9.44;77.61;100049.47;5073595;28;20079;-46
2024/02/06 07:50:19;;;;;;;25.95;14.52;;;;;;;9.49;77.11;100052.72;5073154;28;20482;-46
2024/02/06 07:52:47;;;;;;;29.88;15.18;;;;;;;9.52;76.56;100047.22;5072864;28;20524;-46
2024/02/06 07:55:16;;;;;;;24.95;14.43;;;;;;;9.59;77.07;100037.94;5073211;28;20048;-50
2024/02/06 07:57:44;;;;;;;24.17;15.15;;;;;;;9.59;77.50;100043.25;5072999;28;20478;-47
2024/02/06 08:00:15;;;;;;;27.60;14.73;;;;;;;9.69;76.48;100049.75;5073082;28;20143;-48
2024/02/06 08:02:43;;;;;;;24.45;14.65;;;;;;;9.61;77.91;100052.00;5071849;28;20044;-50
2024/02/06 08:05:11;;;;;;;27.98;14.77;;;;;;;9.74;77.46;100057.44;5073036;28;20060;-48
2024/02/06 08:07:40;;;;;;;24.67;14.15;;;;;;;9.84;76.62;100044.44;5072835;28;20132;-49
2024/02/06 08:10:10;;;;;;;26.67;15.45;;;;;;;9.93;76.26;100057.19;5072573;28;20052;-48
2024/02/06 08:12:39;;;;;;;27.05;15.15;;;;;;;9.91;76.27;100059.97;5073050;28;20048;-47
2024/02/06 08:15:10;;;;;;;28.27;15.40;;;;;;;10.01;76.08;100050.47;5072651;28;20084;-48
2024/02/06 08:17:42;;;;;;;26.58;15.02;;;;;;;10.09;75.48;100060.66;5072707;28;20076;-48
2024/02/06 08:20:11;;;;;;;27.10;16.48;;;;;;;10.21;74.84;100067.88;5072532;28;20049;-46
2024/02/06 08:22:43;;;;;;;25.05;15.15;;;;;;;10.32;74.35;100059.25;5072229;28;20087;-48
2024/02/06 08:25:12;;;;;;;27.17;14.82;;;;;;;10.39;73.46;100057.09;5072610;28;20076;-47
2024/02/06 08:27:41;;;;;;;26.40;14.77;;;;;;;10.38;73.54;100063.38;5072510;28;20052;-46
2024/02/06 08:30:10;;;;;;;25.13;14.52;;;;;;;10.53;72.80;100059.75;5072113;28;20522;-47
2024/02/06 08:32:41;;;;;;;27.70;15.30;;;;;;;10.55;72.44;100076.50;5072201;28;20041;-48
2024/02/06 08:35:09;;;;;;;20.92;13.18;;;;;;;10.53;72.45;100065.09;5071958;28;20052;-45
2024/02/06 08:37:38;;;;;;;22.90;13.32;;;;;;;10.78;73.41;100073.22;5072355;28;20052;-46
2024/02/06 08:40:07;;;;;;;24.08;15.02;;;;;;;10.84;70.62;100074.66;5072201;28;20056;-45
2024/02/06 08:42:36;;;;;;;22.77;13.82;;;;;;;10.97;70.87;100062.22;5072210;28;20048;-48
2024/02/06 08:45:05;;;;;;;26.05;14.82;;;;;;;11.06;70.10;100055.44;5072183;28;20048;-46
2024/02/06 08:47:34;;;;;;;23.02;14.00;;;;;;;11.12;69.58;100057.72;5071704;28;20486;-49
2024/02/06 08:50:06;;;;;;;31.90;14.60;;;;;;;11.13;69.65;100062.09;5072127;28;20402;-47
2024/02/06 08:52:35;;;;;;;24.48;14.85;;;;;;;11.23;69.04;100062.34;5072062;28;20051;-46
2024/02/06 08:55:05;;;;;;;24.27;15.07;;;;;;;11.20;68.97;100063.44;5072028;28;20451;-47
2024/02/06 08:57:33;;;;;;;27.63;14.77;;;;;;;11.22;69.01;100074.84;5072052;28;20040;-49
2024/02/06 09:00:02;;;;;;;25.55;14.95;;;;;;;11.15;69.54;100102.91;5071665;28;20509;-46
2024/02/06 09:02:30;;;;;;;23.58;14.30;;;;;;;10.88;71.64;100084.16;5071851;28;20048;-45
2024/02/06 09:04:59;;;;;;;25.23;14.95;;;;;;;10.82;72.71;100085.44;5070935;28;20513;-45
2024/02/06 09:07:29;;;;;;;26.40;15.43;;;;;;;10.66;73.91;100084.69;5071830;28;20405;-49
2024/02/06 09:09:59;;;;;;;25.75;15.40;;;;;;;10.67;73.97;100081.06;5071065;28;20401;-45
2024/02/06 09:12:28;;;;;;;24.63;15.07;;;;;;;10.73;73.83;100086.03;5071318;28;20048;-45
2024/02/06 09:15:00;;;;;;;26.00;15.60;;;;;;;10.85;73.96;100079.91;5071359;28;20055;-45
2024/02/06 09:17:29;;;;;;;25.92;16.35;;;;;;;10.79;74.78;100085.63;5071741;28;20071;-45
2024/02/06 09:19:57;;;;;;;29.92;16.27;;;;;;;11.02;73.60;100091.31;5071320;28;20059;-47
2024/02/06 09:22:26;;;;;;;26.13;15.07;;;;;;;10.94;73.20;100074.94;5071298;28;20045;-46
2024/02/06 09:24:56;;;;;;;29.60;15.15;;;;;;;11.07;72.93;100084.69;5071176;28;20515;-45
2024/02/06 09:27:25;;;;;;;27.10;16.45;;;;;;;11.02;73.54;100086.81;5071196;28;20113;-46
2024/02/06 09:29:54;;;;;;;32.90;15.98;;;;;;;11.22;72.08;100072.19;5071467;28;20514;-47
2024/02/06 09:32:22;;;;;;;31.75;17.10;;;;;;;11.04;73.91;100078.72;5070982;28;20048;-45
2024/02/06 09:34:51;;;;;;;35.80;16.00;;;;;;;11.14;72.36;100091.38;5071242;28;20048;-46
2024/02/06 09:37:20;;;;;;;27.25;15.30;;;;;;;11.27;71.15;100091.41;5071117;28;20059;-47
2024/02/06 09:39:48;;;;;;;25.83;14.90;;;;;;;11.37;70.61;100099.66;5071682;28;20045;-48
2024/02/06 09:42:18;;;;;;;33.67;16.63;;;;;;;11.25;71.22;100114.69;5071175;28;20041;-46
2024/02/06 09:44:47;;;;;;;26.90;14.05;;;;;;;11.41;70.45;100110.06;5071261;28;20135;-45
2024/02/06 09:47:16;;;;;;;27.23;14.90;;;;;;;11.59;69.50;100108.00;5071044;28;20049;-46
2024/02/06 09:49:45;;;;;;;32.88;15.15;;;;;;;11.71;68.72;100098.31;5071021;28;20048;-47
2024/02/06 09:52:15;;;;;;;28.90;14.75;;;;;;;11.75;67.98;100097.13;5070721;28;20044;-49
2024/02/06 09:54:48;;;;;;;29.38;14.68;;;;;;;11.81;68.74;100096.75;5070982;28;20076;-50
2024/02/06 09:57:21;;;;;;;;;;;;;;;11.99;66.32;100095.50;5071536;28;20044;-47
2024/02/06 09:59:53;;;;;;;26.58;14.35;;;;;;;12.07;66.39;100070.06;5070821;28;20011;-49
2024/02/06 10:02:24;;;;;;;32.10;15.00;;;;;;;12.35;63.61;100061.81;5070837;28;20485;-46
2024/02/06 10:04:55;;;;;;;23.42;13.85;;;;;;;12.48;64.34;100054.63;5070720;28;20045;-47
2024/02/06 10:07:24;;;;;;;27.02;13.52;;;;;;;12.46;62.95;100067.28;5070992;28;20401;-49
2024/02/06 10:09:54;;;;;;;21.48;12.70;;;;;;;12.59;60.62;100069.91;5070691;28;20128;-46
2024/02/06 10:12:25;;;;;;;22.48;13.23;;;;;;;12.77;59.55;100071.28;5070873;28;20040;-47
2024/02/06 10:14:56;;;;;;;23.23;13.13;;;;;;;13.09;60.01;100082.31;5070865;28;20068;-47
2024/02/06 10:17:24;;;;;;;24.10;13.75;;;;;;;13.23;59.10;100077.81;5073947;28;20135;-46
2024/02/06 10:19:54;;;;;;;25.20;12.50;;;;;;;13.21;59.58;100063.66;5074768;28;20044;-47
2024/02/06 10:22:29;;;;;;;21.02;12.15;;;;;;;13.14;60.13;100066.78;5074935;28;20066;-45
2024/02/06 10:25:01;;;;;;;21.42;11.88;;;;;;;13.09;59.11;100042.16;5074682;28;20438;-45
2024/02/06 10:27:30;;;;;;;20.80;11.10;;;;;;;13.37;56.66;100054.38;5074578;28;20547;-47
2024/02/06 10:29:59;;;;;;;20.80;11.45;;;;;;;13.56;55.22;100058.38;5074449;28;20057;-49
2024/02/06 10:32:31;;;;;;;19.60;11.38;;;;;;;13.51;55.70;100056.03;5074580;28;20162;-46
2024/02/06 10:35:03;;;;;;;19.83;11.25;;;;;;;13.69;56.03;100064.50;5074412;28;20080;-45
2024/02/06 10:37:35;;;;;;;18.45;11.18;;;;;;;13.62;56.52;100057.91;5074332;28;20048;-45
2024/02/06 10:40:06;;;;;;;21.80;11.02;;;;;;;13.81;55.50;100052.84;5074465;28;20053;-48
2024/02/06 10:42:37;;;;;;;19.60;10.85;;;;;;;13.85;55.16;100045.41;5074446;28;20098;-48
2024/02/06 10:45:26;;;;;;;17.30;10.20;;;;;;;14.06;53.21;100040.22;5074654;28;20055;-48
2024/02/06 10:47:57;;;;;;;20.25;10.60;;;;;;;14.28;52.38;100041.13;5074520;28;20044;-49
2024/02/06 10:50:29;;;;;;;18.45;10.88;;;;;;;14.19;52.65;100028.44;5074251;28;20530;-47
2024/02/06 10:52:58;;;;;;;18.63;10.43;;;;;;;14.32;52.71;100030.97;5072819;28;20086;-46
2024/02/06 10:55:27;;;;;;;20.50;11.18;;;;;;;14.29;52.61;100025.88;5072189;28;20160;-47
2024/02/06 10:58:05;;;;;;;19.08;10.25;;;;;;;14.52;51.99;100024.06;5067824;28;20074;-49
2024/02/06 11:00:35;;;;;;;16.55;10.13;;;;;;;14.59;51.53;100012.72;5071791;28;20094;-45
2024/02/06 11:03:07;;;;;;;19.02;10.73;;;;;;;14.65;51.31;100022.09;5072968;28;20048;-47
2024/02/06 11:05:42;;;;;;;20.17;10.30;;;;;;;14.49;52.05;100018.94;5072850;28;20401;-46
2024/02/06 11:08:14;;;;;;;17.85;9.77;;;;;;;14.71;51.58;100016.22;5072558;28;20051;-47
2024/02/06 11:10:45;;;;;;;17.75;9.95;;;;;;;15.04;50.69;100022.50;5072398;28;20040;-49
2024/02/06 11:13:22;;;;;;;17.60;9.27;;;;;;;15.04;50.31;100017.13;5072754;28;20493;-48
2024/02/06 11:15:53;;;;;;;14.18;8.52;;;;;;;15.21;49.69;100008.53;5072819;28;20055;-45
2024/02/06 11:18:23;;;;;;;16.20;9.95;;;;;;;15.40;49.12;100011.38;5064776;28;20135;-44
2024/02/06 11:20:53;;;;;;;17.30;9.27;;;;;;;15.59;48.72;100005.31;5072525;28;20048;-46
2024/02/06 11:23:23;;;;;;;16.48;8.93;;;;;;;15.76;48.08;100001.22;5072512;28;20045;-48
2024/02/06 11:25:53;;;;;;;15.75;8.30;;;;;;;15.81;46.94;100001.66;5072544;28;20052;-44
2024/02/06 11:28:24;;;;;;;16.55;8.70;;;;;;;15.80;46.19;99986.53;5070304;28;20051;-46
2024/02/06 11:30:59;;;;;;;16.08;8.18;;;;;;;16.00;45.89;99991.03;5072254;28;20568;-44